createdAt,value
2017-05-30T00:00:56.027Z,7.26
2017-05-30T00:03:23.600Z,6.60
2017-05-30T00:05:51.399Z,7.32
2017-05-30T00:08:19.044Z,7.66
2017-05-30T00:10:46.597Z,7.44
2017-05-30T00:13:14.170Z,7.86
2017-05-30T00:15:41.775Z,7.40
2017-05-30T00:18:09.343Z,7.10
2017-05-30T00:20:36.900Z,8.08
2017-05-30T00:23:04.499Z,7.62
2017-05-30T00:25:32.054Z,8.02
2017-05-30T00:27:59.597Z,6.72
2017-05-30T00:30:27.190Z,7.40
2017-05-30T00:32:54.780Z,7.80
2017-05-30T00:35:22.370Z,6.26
2017-05-30T00:37:49.986Z,7.54
2017-05-30T00:40:17.622Z,6.42
2017-05-30T00:42:45.167Z,6.60
2017-05-30T00:45:13.559Z,6.66
2017-05-30T00:47:41.108Z,7.64
2017-05-30T00:50:08.661Z,7.74
2017-05-30T00:52:36.237Z,7.42
2017-05-30T00:55:03.802Z,7.30
2017-05-30T00:57:31.359Z,6.22
2017-05-30T00:59:59.202Z,5.30
2017-05-30T01:02:26.805Z,5.54
2017-05-30T01:04:54.436Z,4.42
2017-05-30T01:07:22.288Z,4.28
2017-05-30T01:09:49.911Z,4.12
2017-05-30T01:12:17.463Z,3.90
2017-05-30T01:14:45.018Z,4.36
2017-05-30T01:17:12.637Z,4.50
2017-05-30T01:19:40.193Z,3.90
2017-05-30T01:22:07.753Z,4.10
2017-05-30T01:24:35.396Z,3.56
2017-05-30T01:27:02.939Z,4.10
2017-05-30T01:29:30.492Z,4.04
2017-05-30T01:31:58.113Z,4.52
2017-05-30T01:34:25.726Z,4.66
2017-05-30T01:36:53.505Z,4.20
2017-05-30T01:39:21.106Z,4.34
2017-05-30T01:41:48.659Z,4.42
2017-05-30T01:44:16.209Z,5.04
2017-05-30T01:46:43.815Z,4.80
2017-05-30T01:49:11.366Z,4.82
2017-05-30T01:51:39.134Z,5.26
2017-05-30T01:54:06.739Z,5.32
2017-05-30T01:56:34.559Z,4.68
2017-05-30T01:59:02.111Z,4.80
2017-05-30T02:01:29.963Z,4.73
2017-05-30T02:03:57.507Z,4.72
2017-05-30T02:06:25.122Z,5.14
2017-05-30T02:08:52.727Z,5.38
2017-05-30T02:11:20.510Z,5.18
2017-05-30T02:13:48.294Z,4.88
2017-05-30T02:16:15.906Z,4.62
2017-05-30T02:18:43.466Z,4.70
2017-05-30T02:21:10.998Z,5.70
2017-05-30T02:23:38.624Z,4.58
2017-05-30T02:26:06.178Z,4.53
2017-05-30T02:28:33.774Z,4.44
2017-05-30T02:31:01.494Z,5.54
2017-05-30T02:33:29.056Z,4.82
2017-05-30T02:35:56.843Z,5.04
2017-05-30T02:38:24.423Z,4.92
2017-05-30T02:40:52.200Z,5.12
2017-05-30T02:43:19.756Z,5.20
2017-05-30T02:45:47.332Z,6.68
2017-05-30T02:48:14.876Z,5.72
2017-05-30T02:50:42.424Z,6.78
2017-05-30T02:53:10.008Z,6.82
2017-05-30T02:55:37.595Z,5.88
2017-05-30T02:58:05.142Z,5.25
2017-05-30T03:00:32.845Z,6.28
2017-05-30T03:03:00.402Z,5.25
2017-05-30T03:05:27.973Z,6.07
2017-05-30T03:07:55.559Z,6.06
2017-05-30T03:10:23.134Z,6.10
2017-05-30T03:12:50.691Z,6.70
2017-05-30T03:15:18.307Z,6.76
2017-05-30T03:17:45.871Z,6.43
2017-05-30T03:20:13.654Z,6.22
2017-05-30T03:22:41.256Z,5.88
2017-05-30T03:25:08.815Z,6.03
2017-05-30T03:27:36.381Z,7.74
2017-05-30T03:30:05.475Z,6.48
2017-05-30T03:32:33.037Z,6.04
2017-05-30T03:35:00.569Z,5.70
2017-05-30T03:37:28.150Z,5.63
2017-05-30T03:39:55.730Z,7.00
2017-05-30T03:42:23.333Z,5.70
2017-05-30T03:44:50.938Z,6.20
2017-05-30T03:47:18.492Z,5.58
2017-05-30T03:49:46.043Z,5.48
2017-05-30T03:52:13.625Z,6.04
2017-05-30T03:54:41.215Z,7.14
2017-05-30T03:57:09.034Z,7.18
2017-05-30T03:59:36.642Z,6.00
2017-05-30T04:02:05.186Z,6.00
2017-05-30T04:04:32.739Z,6.58
2017-05-30T04:07:01.168Z,7.04
2017-05-30T04:09:28.902Z,7.28
2017-05-30T04:11:56.463Z,7.94
2017-05-30T04:14:24.007Z,8.14
2017-05-30T04:16:51.679Z,8.62
2017-05-30T04:19:19.234Z,9.02
2017-05-30T04:21:48.038Z,8.24
2017-05-30T04:24:15.666Z,7.64
2017-05-30T04:26:43.226Z,7.04
2017-05-30T04:29:10.769Z,6.54
2017-05-30T04:31:38.350Z,7.12
2017-05-30T04:34:06.131Z,9.52
2017-05-30T04:36:33.679Z,7.44
2017-05-30T04:39:01.299Z,8.00
2017-05-30T04:41:28.867Z,6.40
2017-05-30T04:43:56.481Z,6.24
2017-05-30T04:46:24.099Z,7.24
2017-05-30T04:48:51.678Z,8.16
2017-05-30T04:51:19.243Z,6.88
2017-05-30T04:53:46.823Z,8.02
2017-05-30T04:56:14.384Z,8.28
2017-05-30T04:58:41.936Z,7.50
2017-05-30T05:01:09.598Z,6.20
2017-05-30T05:03:37.139Z,6.14
2017-05-30T05:06:05.148Z,6.50
2017-05-30T05:08:32.749Z,7.52
2017-05-30T05:11:00.318Z,6.58
2017-05-30T05:13:28.670Z,8.52
2017-05-30T05:15:56.289Z,9.72
2017-05-30T05:18:23.850Z,7.90
2017-05-30T05:20:51.408Z,8.52
2017-05-30T05:23:18.990Z,8.58
2017-05-30T05:25:46.574Z,8.62
2017-05-30T05:28:14.155Z,8.68
2017-05-30T05:30:41.770Z,8.54
2017-05-30T05:33:09.555Z,8.54
2017-05-30T05:35:37.158Z,9.30
2017-05-30T05:38:04.782Z,9.42
2017-05-30T05:40:32.406Z,8.42
2017-05-30T05:42:59.975Z,8.24
2017-05-30T05:45:27.582Z,9.36
2017-05-30T05:47:55.126Z,9.10
2017-05-30T05:50:22.915Z,8.86
2017-05-30T05:52:50.518Z,10.08
2017-05-30T05:55:18.148Z,10.38
2017-05-30T05:57:45.711Z,10.32
2017-05-30T06:00:13.714Z,9.90
2017-05-30T06:02:41.272Z,11.18
2017-05-30T06:05:09.617Z,9.94
2017-05-30T06:07:37.198Z,10.20
2017-05-30T06:10:05.561Z,12.28
2017-05-30T06:12:33.115Z,10.24
2017-05-30T06:15:00.733Z,10.26
2017-05-30T06:17:28.579Z,11.84
2017-05-30T06:19:56.144Z,12.72
2017-05-30T06:22:23.800Z,11.44
2017-05-30T06:24:51.353Z,10.78
2017-05-30T06:27:19.013Z,9.96
2017-05-30T06:29:46.602Z,9.98
2017-05-30T06:32:14.941Z,11.36
2017-05-30T06:34:42.545Z,11.16
2017-05-30T06:37:10.101Z,12.02
2017-05-30T06:39:37.697Z,10.20
2017-05-30T06:42:05.283Z,11.28
2017-05-30T06:44:33.082Z,13.78
2017-05-30T06:47:00.686Z,11.20
2017-05-30T06:49:28.269Z,10.76
2017-05-30T06:51:55.810Z,11.10
2017-05-30T06:54:23.400Z,12.42
2017-05-30T06:56:50.998Z,9.62
2017-05-30T06:59:18.644Z,11.36
2017-05-30T07:01:46.290Z,10.68
2017-05-30T07:04:13.886Z,10.84
2017-05-30T07:06:41.663Z,10.30
2017-05-30T07:09:09.299Z,11.14
2017-05-30T07:11:37.098Z,11.28
2017-05-30T07:14:04.884Z,9.50
2017-05-30T07:16:32.507Z,9.50
2017-05-30T07:19:00.103Z,11.88
2017-05-30T07:21:27.687Z,10.44
2017-05-30T07:23:55.311Z,9.52
2017-05-30T07:26:23.120Z,9.78
2017-05-30T07:28:50.688Z,9.72
2017-05-30T07:31:18.303Z,9.02
2017-05-30T07:33:45.895Z,8.28
2017-05-30T07:36:13.679Z,8.40
2017-05-30T07:38:41.366Z,8.90
2017-05-30T07:41:08.972Z,9.26
2017-05-30T07:43:36.542Z,8.70
2017-05-30T07:46:04.130Z,7.98
2017-05-30T07:48:31.817Z,7.44
2017-05-30T07:50:59.591Z,6.68
2017-05-30T07:53:27.383Z,6.92
2017-05-30T07:55:55.015Z,5.12
2017-05-30T07:58:22.623Z,6.86
2017-05-30T08:00:50.222Z,7.06
2017-05-30T08:03:17.791Z,6.46
2017-05-30T08:05:45.347Z,6.02
2017-05-30T08:08:12.963Z,5.60
2017-05-30T08:10:40.542Z,5.40
2017-05-30T08:13:08.147Z,6.12
2017-05-30T08:15:35.750Z,6.12
2017-05-30T08:18:03.363Z,5.86
2017-05-30T08:20:30.936Z,5.10
2017-05-30T08:23:02.291Z,7.40
2017-05-30T08:25:30.155Z,5.74
2017-05-30T08:27:57.699Z,5.80
2017-05-30T08:30:25.379Z,5.24
2017-05-30T08:32:53.603Z,5.10
2017-05-30T08:35:21.158Z,4.76
2017-05-30T08:37:48.739Z,7.32
2017-05-30T08:40:16.523Z,4.90
2017-05-30T08:42:44.105Z,5.02
2017-05-30T08:45:11.695Z,4.66
2017-05-30T08:47:39.292Z,4.86
2017-05-30T08:50:06.844Z,5.30
2017-05-30T08:52:34.446Z,4.22
2017-05-30T08:55:01.999Z,4.00
2017-05-30T08:57:29.578Z,4.38
2017-05-30T08:59:57.184Z,4.18
2017-05-30T09:02:24.783Z,5.18
2017-05-30T09:04:52.354Z,4.82
2017-05-30T09:07:19.932Z,4.88
2017-05-30T09:09:47.543Z,4.60
2017-05-30T09:12:15.139Z,4.90
2017-05-30T09:14:42.715Z,4.04
2017-05-30T09:17:10.333Z,2.94
2017-05-30T09:19:37.907Z,3.44
2017-05-30T09:22:06.103Z,3.72
2017-05-30T09:24:33.708Z,3.84
2017-05-30T09:27:01.504Z,3.84
2017-05-30T09:29:29.058Z,2.68
2017-05-30T09:31:56.654Z,2.92
2017-05-30T09:34:24.284Z,3.34
2017-05-30T09:36:51.859Z,2.72
2017-05-30T09:39:19.459Z,2.74
2017-05-30T09:41:47.293Z,2.32
2017-05-30T09:44:14.893Z,3.40
2017-05-30T09:46:42.498Z,2.50
2017-05-30T09:49:10.273Z,2.42
2017-05-30T09:51:38.079Z,2.08
2017-05-30T09:54:05.687Z,2.40
2017-05-30T09:56:33.254Z,2.46
2017-05-30T09:59:01.051Z,2.32
2017-05-30T10:01:28.674Z,3.26
2017-05-30T10:03:56.288Z,2.42
2017-05-30T10:06:23.842Z,1.98
2017-05-30T10:08:51.450Z,2.50
2017-05-30T10:11:19.079Z,2.38
2017-05-30T10:13:46.856Z,2.28
2017-05-30T10:16:14.455Z,2.50
2017-05-30T10:18:42.066Z,2.50
2017-05-30T10:21:09.867Z,2.00
2017-05-30T10:23:37.470Z,2.70
2017-05-30T10:26:05.023Z,2.34
2017-05-30T10:28:32.601Z,2.52
2017-05-30T10:31:00.195Z,2.20
2017-05-30T10:33:27.983Z,2.20
2017-05-30T10:35:55.757Z,2.30
2017-05-30T10:38:23.386Z,2.40
2017-05-30T10:40:51.206Z,2.08
2017-05-30T10:43:18.795Z,1.86
2017-05-30T10:45:46.403Z,2.18
2017-05-30T10:48:13.955Z,2.04
2017-05-30T10:50:41.500Z,2.10
2017-05-30T10:53:09.096Z,1.92
2017-05-30T10:55:36.660Z,2.18
2017-05-30T10:58:04.216Z,2.20
2017-05-30T11:00:31.935Z,2.58
2017-05-30T11:02:59.546Z,2.62
2017-05-30T11:05:27.334Z,2.74
2017-05-30T11:07:54.951Z,2.82
2017-05-30T11:10:22.833Z,2.54
2017-05-30T11:12:50.688Z,2.46
2017-05-30T11:15:18.295Z,2.82
2017-05-30T11:17:45.923Z,2.42
2017-05-30T11:20:13.710Z,2.46
2017-05-30T11:22:41.330Z,2.24
2017-05-30T11:25:09.696Z,2.72
2017-05-30T11:27:37.271Z,3.36
2017-05-30T11:30:07.862Z,1.94
2017-05-30T11:32:35.406Z,1.94
2017-05-30T11:35:02.966Z,2.36
2017-05-30T11:37:30.553Z,1.92
2017-05-30T11:39:58.139Z,2.10
2017-05-30T11:42:25.930Z,1.90
2017-05-30T11:44:53.763Z,2.02
2017-05-30T11:47:21.615Z,2.20
2017-05-30T11:49:49.424Z,2.56
2017-05-30T11:52:17.350Z,2.26
2017-05-30T11:54:45.194Z,1.90
2017-05-30T11:57:13.042Z,2.14
2017-05-30T11:59:40.944Z,2.10
2017-05-30T12:02:08.602Z,2.28
2017-05-30T12:04:36.154Z,2.44
2017-05-30T12:07:03.753Z,2.54
2017-05-30T12:09:31.374Z,2.18
2017-05-30T12:11:58.951Z,2.20
2017-05-30T12:14:26.521Z,2.22
2017-05-30T12:16:54.130Z,2.30
2017-05-30T12:19:21.714Z,2.34
2017-05-30T12:21:49.317Z,2.38
2017-05-30T12:24:17.149Z,2.40
2017-05-30T12:26:44.573Z,2.90
2017-05-30T12:29:12.367Z,2.38
2017-05-30T12:31:39.993Z,2.40
2017-05-30T12:34:07.543Z,3.28
2017-05-30T12:36:35.139Z,2.60
2017-05-30T12:39:02.966Z,3.78
2017-05-30T12:41:30.599Z,2.96
2017-05-30T12:43:58.194Z,2.30
2017-05-30T12:46:25.814Z,2.50
2017-05-30T12:48:53.402Z,2.52
2017-05-30T12:51:21.022Z,2.70
2017-05-30T12:53:48.663Z,2.30
2017-05-30T12:56:16.274Z,2.94
2017-05-30T12:58:43.884Z,2.44
2017-05-30T13:01:11.505Z,3.12
2017-05-30T13:03:39.104Z,2.38
2017-05-30T13:06:06.714Z,2.18
2017-05-30T13:08:34.525Z,2.22
2017-05-30T13:11:02.094Z,2.54
2017-05-30T13:13:29.687Z,1.92
2017-05-30T13:15:57.294Z,2.40
2017-05-30T13:18:24.863Z,2.36
2017-05-30T13:20:52.482Z,2.20
2017-05-30T13:23:20.108Z,2.66
2017-05-30T13:25:47.668Z,2.38
2017-05-30T13:28:15.246Z,2.30
2017-05-30T13:30:42.858Z,2.40
2017-05-30T13:33:10.413Z,2.56
2017-05-30T13:35:38.033Z,2.68
2017-05-30T13:38:05.649Z,2.70
2017-05-30T13:40:33.235Z,2.30
2017-05-30T13:43:00.822Z,2.38
2017-05-30T13:45:28.440Z,2.50
2017-05-30T13:47:56.038Z,2.58
2017-05-30T13:50:23.609Z,2.80
2017-05-30T13:52:51.216Z,2.50
2017-05-30T13:55:18.773Z,2.44
2017-05-30T13:57:46.601Z,2.00
2017-05-30T14:00:14.374Z,2.30
2017-05-30T14:02:42.020Z,1.84
2017-05-30T14:05:09.583Z,2.24
2017-05-30T14:07:37.383Z,2.40
2017-05-30T14:10:05.148Z,3.98
2017-05-30T14:12:33.198Z,2.58
2017-05-30T14:15:00.811Z,2.48
2017-05-30T14:17:28.392Z,2.32
2017-05-30T14:19:56.024Z,3.56
2017-05-30T14:22:23.629Z,2.70
2017-05-30T14:24:51.220Z,2.70
2017-05-30T14:27:18.951Z,2.30
2017-05-30T14:29:46.557Z,2.34
2017-05-30T14:32:14.153Z,2.60
2017-05-30T14:34:41.779Z,2.82
2017-05-30T14:37:09.579Z,2.54
2017-05-30T14:39:37.225Z,4.00
2017-05-30T14:42:05.082Z,4.18
2017-05-30T14:44:32.707Z,3.80
2017-05-30T14:47:00.344Z,2.76
2017-05-30T14:49:27.998Z,3.32
2017-05-30T14:51:56.180Z,2.94
2017-05-30T14:54:23.860Z,2.42
2017-05-30T14:56:52.103Z,3.04
2017-05-30T14:59:19.883Z,2.52
2017-05-30T15:01:47.765Z,3.08
2017-05-30T15:04:15.602Z,2.60
2017-05-30T15:06:43.209Z,2.30
2017-05-30T15:09:10.834Z,2.42
2017-05-30T15:11:38.671Z,2.64
2017-05-30T15:14:06.239Z,2.90
2017-05-30T15:16:33.820Z,2.80
2017-05-30T15:19:01.784Z,2.70
2017-05-30T15:21:29.816Z,2.86
2017-05-30T15:23:57.403Z,2.58
2017-05-30T15:26:25.023Z,2.66
2017-05-30T15:28:53.517Z,2.22
2017-05-30T15:31:21.252Z,2.80
2017-05-30T15:33:49.443Z,2.60
2017-05-30T15:36:17.075Z,2.30
2017-05-30T15:38:44.698Z,2.50
2017-05-30T15:41:12.249Z,2.56
2017-05-30T15:43:39.789Z,2.80
2017-05-30T15:46:07.370Z,3.02
2017-05-30T15:48:35.223Z,3.26
2017-05-30T15:51:02.830Z,3.08
2017-05-30T15:53:30.438Z,3.46
2017-05-30T15:55:58.363Z,2.66
2017-05-30T15:58:25.915Z,2.96
2017-05-30T16:00:53.594Z,3.14
2017-05-30T16:03:21.738Z,2.74
2017-05-30T16:05:49.600Z,2.66
2017-05-30T16:08:17.880Z,2.16
2017-05-30T16:10:46.816Z,3.50
2017-05-30T16:13:14.501Z,3.46
2017-05-30T16:15:42.185Z,2.50
2017-05-30T16:18:09.761Z,2.60
2017-05-30T16:20:37.421Z,3.44
2017-05-30T16:23:05.149Z,2.80
2017-05-30T16:25:33.418Z,2.34
2017-05-30T16:28:01.998Z,2.14
2017-05-30T16:30:30.746Z,2.46
2017-05-30T16:32:58.409Z,2.76
2017-05-30T16:35:25.957Z,3.12
2017-05-30T16:37:53.558Z,2.88
2017-05-30T16:40:21.724Z,3.74
2017-05-30T16:42:49.525Z,2.42
2017-05-30T16:45:17.134Z,2.86
2017-05-30T16:47:44.923Z,2.66
2017-05-30T16:50:12.751Z,4.22
2017-05-30T16:52:40.395Z,3.82
2017-05-30T16:55:08.193Z,3.22
2017-05-30T16:57:35.746Z,2.86
2017-05-30T17:00:06.692Z,3.40
2017-05-30T17:02:34.499Z,2.30
2017-05-30T17:05:02.331Z,2.50
2017-05-30T17:07:30.965Z,2.74
2017-05-30T17:09:58.586Z,3.14
2017-05-30T17:12:26.155Z,2.74
2017-05-30T17:14:53.808Z,3.00
2017-05-30T17:17:21.444Z,3.44
2017-05-30T17:19:49.047Z,2.46
2017-05-30T17:22:16.637Z,3.26
2017-05-30T17:24:44.435Z,2.52
2017-05-30T17:27:12.007Z,2.92
2017-05-30T17:29:39.621Z,2.62
2017-05-30T17:32:07.207Z,3.08
2017-05-30T17:34:34.755Z,3.30
2017-05-30T17:37:02.557Z,2.82
2017-05-30T17:39:30.211Z,4.74
2017-05-30T17:41:57.753Z,8.38
2017-05-30T17:44:25.576Z,6.18
2017-05-30T17:46:53.201Z,5.10
2017-05-30T17:49:21.387Z,5.16
2017-05-30T17:51:49.008Z,5.12
2017-05-30T17:54:16.639Z,5.18
2017-05-30T17:56:44.222Z,4.46
2017-05-30T17:59:12.130Z,4.88
2017-05-30T18:01:39.875Z,3.92
2017-05-30T18:04:07.801Z,3.82
2017-05-30T18:06:35.595Z,3.62
2017-05-30T18:09:03.862Z,4.38
2017-05-30T18:11:31.826Z,4.80
2017-05-30T18:14:00.306Z,4.46
2017-05-30T18:16:28.247Z,3.92
2017-05-30T18:18:56.288Z,4.16
2017-05-30T18:21:24.302Z,4.32
2017-05-30T18:23:53.280Z,3.44
2017-05-30T18:26:20.950Z,3.74
2017-05-30T18:28:48.510Z,4.78
2017-05-30T18:31:16.120Z,3.56
2017-05-30T18:33:43.981Z,2.78
2017-05-30T18:36:11.848Z,4.00
2017-05-30T18:38:39.442Z,4.84
2017-05-30T18:41:07.003Z,4.46
2017-05-30T18:43:35.488Z,4.76
2017-05-30T18:46:03.262Z,4.90
2017-05-30T18:48:31.208Z,4.80
2017-05-30T18:50:58.771Z,5.28
2017-05-30T18:53:26.395Z,6.36
2017-05-30T18:55:53.967Z,5.90
2017-05-30T18:58:21.564Z,6.52
2017-05-30T19:00:49.173Z,5.94
2017-05-30T19:03:16.731Z,5.84
2017-05-30T19:05:44.289Z,5.70
2017-05-30T19:08:11.882Z,5.14
2017-05-30T19:10:39.426Z,5.82
2017-05-30T19:13:07.259Z,8.30
2017-05-30T19:15:34.847Z,12.96
2017-05-30T19:18:02.404Z,13.14
2017-05-30T19:20:29.959Z,9.70
2017-05-30T19:22:57.576Z,8.98
2017-05-30T19:25:25.395Z,7.34
2017-05-30T19:27:52.940Z,9.34
2017-05-30T19:30:20.680Z,8.84
2017-05-30T19:32:48.246Z,9.40
2017-05-30T19:35:15.798Z,10.06
2017-05-30T19:37:43.484Z,10.52
2017-05-30T19:40:11.276Z,10.58
2017-05-30T19:42:39.071Z,10.76
2017-05-30T19:45:06.745Z,12.02
2017-05-30T19:47:34.346Z,11.72
2017-05-30T19:50:01.931Z,9.52
2017-05-30T19:52:29.552Z,8.88
2017-05-30T19:54:57.190Z,9.22
2017-05-30T19:57:28.609Z,8.84
2017-05-30T19:59:56.642Z,9.40
2017-05-30T20:02:24.279Z,10.68
2017-05-30T20:04:51.838Z,9.18
2017-05-30T20:07:19.407Z,9.36
2017-05-30T20:09:47.042Z,8.60
2017-05-30T20:12:14.755Z,10.92
2017-05-30T20:14:42.575Z,11.56
2017-05-30T20:17:10.192Z,10.78
2017-05-30T20:19:37.769Z,11.48
2017-05-30T20:22:05.567Z,10.78
2017-05-30T20:24:33.173Z,12.60
2017-05-30T20:27:00.775Z,11.22
2017-05-30T20:29:28.419Z,11.38
2017-05-30T20:31:56.292Z,11.56
2017-05-30T20:34:28.133Z,10.30
2017-05-30T20:36:55.732Z,8.26
2017-05-30T20:39:23.363Z,9.44
2017-05-30T20:41:50.921Z,10.60
2017-05-30T20:44:18.487Z,9.72
2017-05-30T20:46:46.132Z,9.68
2017-05-30T20:49:13.679Z,9.70
2017-05-30T20:51:41.233Z,9.54
2017-05-30T20:54:09.065Z,9.70
2017-05-30T20:57:16.397Z,7.90
2017-05-30T20:59:44.011Z,8.04
2017-05-30T21:02:11.619Z,9.00
2017-05-30T21:04:39.186Z,9.30
2017-05-30T21:07:06.744Z,8.72
2017-05-30T21:09:35.166Z,9.30
2017-05-30T21:12:02.724Z,9.28
2017-05-30T21:14:30.310Z,11.44
2017-05-30T21:16:57.934Z,19.60
2017-05-30T21:19:25.511Z,20.28
2017-05-30T21:21:53.094Z,21.52
2017-05-30T21:24:20.683Z,17.38
2017-05-30T21:26:48.262Z,15.28
2017-05-30T21:29:16.098Z,14.16
2017-05-30T21:31:44.345Z,11.18
2017-05-30T21:34:11.922Z,9.78
2017-05-30T21:36:39.519Z,8.04
2017-05-30T21:39:46.986Z,9.02
2017-05-30T21:42:14.548Z,8.58
2017-05-30T21:44:42.337Z,9.20
2017-05-30T21:47:09.933Z,7.98
2017-05-30T21:49:37.510Z,7.74
2017-05-30T21:52:05.095Z,6.68
2017-05-30T21:54:32.696Z,7.40
2017-05-30T21:57:00.263Z,6.00
2017-05-30T21:59:28.040Z,7.32
2017-05-30T22:02:18.022Z,7.58
2017-05-30T22:04:45.574Z,8.66
2017-05-30T22:07:13.126Z,9.50
2017-05-30T22:09:40.709Z,8.26
2017-05-30T22:12:08.267Z,7.38
2017-05-30T22:14:36.045Z,7.32
2017-05-30T22:17:03.675Z,5.60
2017-05-30T22:19:31.481Z,6.62
2017-05-30T22:21:59.059Z,7.20
2017-05-30T22:24:26.637Z,6.52
2017-05-30T22:26:54.179Z,7.16
2017-05-30T22:29:21.809Z,6.32
2017-05-30T22:31:49.383Z,6.20
2017-05-30T22:34:17.101Z,6.26
2017-05-30T22:36:51.990Z,7.30
2017-05-30T22:39:19.576Z,6.68
2017-05-30T22:41:47.420Z,7.02
2017-05-30T22:44:14.999Z,6.84
2017-05-30T22:46:42.855Z,6.88
2017-05-30T22:49:10.402Z,6.48
2017-05-30T22:51:37.992Z,7.10
2017-05-30T22:54:05.572Z,6.14
2017-05-30T22:56:33.123Z,6.94
2017-05-30T22:59:00.743Z,5.84
2017-05-30T23:01:28.332Z,6.40
2017-05-30T23:03:55.886Z,6.94
2017-05-30T23:06:23.430Z,6.10
2017-05-30T23:08:51.012Z,5.96
2017-05-30T23:11:18.605Z,6.38
2017-05-30T23:13:46.149Z,6.16
2017-05-30T23:16:14.003Z,5.96
2017-05-30T23:18:41.562Z,5.38
2017-05-30T23:21:09.114Z,5.76
2017-05-30T23:23:36.697Z,6.50
2017-05-30T23:26:04.282Z,7.00
2017-05-30T23:28:32.071Z,6.02
2017-05-30T23:30:59.798Z,6.42
2017-05-30T23:33:27.404Z,6.06
2017-05-30T23:35:55.185Z,7.12
2017-05-30T23:38:22.875Z,6.40
2017-05-30T23:40:50.418Z,6.10
2017-05-30T23:43:18.198Z,5.98
2017-05-30T23:45:45.779Z,7.10
2017-05-30T23:48:13.917Z,7.04
2017-05-30T23:50:41.529Z,6.86
2017-05-30T23:53:09.102Z,6.30
2017-05-30T23:55:36.690Z,6.56
2017-05-30T23:58:04.231Z,7.08
